Time;durP1;ratioP1;P1;durP2;ratioP2;P2;SDS_P1;SDS_P2;PMS_P1;PMS_P2;Temp;Humidity;BMP_temperature;BMP_pressure;BME280_temperature;BME280_humidity;BME280_pressure;Samples;Min_cycle;Max_cycle;Signal;HPM_P1;HPM_P2
2021/08/01 01:16:26;;;;;;;5.05;4.53;;;17.80;99.90;;;;;;5084441;23;20262;-90
2021/08/01 01:18:59;;;;;;;6.07;4.68;;;17.70;99.90;;;;;;5023406;28;20211;-91
2021/08/01 01:21:47;;;;;;;4.85;4.25;;;17.60;99.90;;;;;;5025583;28;20191;-90
2021/08/01 01:24:16;;;;;;;7.28;4.10;;;17.50;99.70;;;;;;4997119;28;20227;-90
2021/08/01 01:26:55;;;;;;;6.72;4.18;;;17.40;99.70;;;;;;4997221;28;20240;-90
2021/08/01 01:29:27;;;;;;;5.22;3.97;;;17.20;99.50;;;;;;5016427;28;20214;-90
2021/08/01 01:35:37;;;;;;;7.22;4.03;;;16.90;99.20;;;;;;4998148;28;20184;-90
2021/08/01 01:38:07;;;;;;;7.28;4.13;;;16.70;99.30;;;;;;4993988;28;20320;-90
2021/08/01 01:40:53;;;;;;;8.20;4.30;;;16.50;99.60;;;;;;4997553;28;20601;-90
2021/08/01 01:43:22;;;;;;;8.18;4.15;;;16.50;99.90;;;;;;5008130;28;20277;-90
2021/08/01 01:45:50;;;;;;;8.80;4.32;;;16.40;99.30;;;;;;5019506;28;20218;-90
2021/08/01 01:48:17;;;;;;;5.18;4.38;;;16.00;99.50;;;;;;5006672;28;20223;-90
2021/08/01 01:50:44;;;;;;;6.45;4.63;;;15.80;99.90;;;;;;5027342;28;20221;-89
2021/08/01 01:53:13;;;;;;;9.73;4.95;;;15.60;99.90;;;;;;5024033;28;20225;-89
2021/08/01 01:55:40;;;;;;;9.48;5.38;;;15.40;99.90;;;;;;5015059;28;20203;-90
2021/08/01 01:58:11;;;;;;;9.05;5.28;;;15.30;99.90;;;;;;5026248;28;20591;-89
2021/08/01 02:00:39;;;;;;;9.00;5.30;;;15.20;99.90;;;;;;5011522;28;20282;-89
2021/08/01 02:03:06;;;;;;;8.38;5.03;;;15.20;99.90;;;;;;5027552;28;20222;-90
2021/08/01 02:05:32;;;;;;;9.95;5.47;;;15.30;99.90;;;;;;5019585;28;20238;-88
2021/08/01 02:07:59;;;;;;;8.23;4.85;;;15.30;99.90;;;;;;5004542;28;20234;-89
2021/08/01 02:10:35;;;;;;;9.27;5.68;;;15.20;99.90;;;;;;5013416;28;20218;-88
2021/08/01 02:13:05;;;;;;;9.15;5.05;;;15.10;99.90;;;;;;5016657;28;20230;-88
2021/08/01 02:15:39;;;;;;;7.55;4.80;;;15.10;99.90;;;;;;5029905;28;20202;-89
2021/08/01 02:18:08;;;;;;;6.28;5.07;;;15.00;99.90;;;;;;5020065;28;20230;-88
2021/08/01 02:20:40;;;;;;;8.48;5.15;;;15.00;99.90;;;;;;5019407;28;20196;-91
2021/08/01 02:23:10;;;;;;;12.38;6.22;;;14.90;99.90;;;;;;5009451;28;20242;-89
2021/08/01 02:25:38;;;;;;;11.05;5.65;;;14.80;99.90;;;;;;5023303;28;20240;-90
2021/08/01 02:28:08;;;;;;;7.68;6.22;;;14.90;99.90;;;;;;5028572;28;20223;-89
2021/08/01 02:30:35;;;;;;;6.43;5.30;;;14.90;99.90;;;;;;5019397;28;20588;-88
2021/08/01 02:33:03;;;;;;;7.38;5.00;;;15.00;99.90;;;;;;5027284;28;20249;-89
2021/08/01 02:35:32;;;;;;;8.13;5.40;;;14.90;99.90;;;;;;5019877;28;20206;-89
2021/08/01 02:38:01;;;;;;;8.77;5.10;;;14.80;99.90;;;;;;5018318;28;20219;-89
2021/08/01 02:40:32;;;;;;;8.40;5.43;;;14.90;99.90;;;;;;5006246;28;20762;-89
2021/08/01 02:43:03;;;;;;;6.97;5.15;;;15.00;99.90;;;;;;5018131;28;20578;-89
2021/08/01 02:45:31;;;;;;;7.72;4.85;;;15.00;99.90;;;;;;5016015;28;20215;-89
2021/08/01 02:48:00;;;;;;;7.85;5.00;;;14.90;99.90;;;;;;5020485;28;20219;-89
2021/08/01 02:50:27;;;;;;;7.78;5.15;;;14.90;99.90;;;;;;5024059;28;20215;-89
2021/08/01 02:52:59;;;;;;;8.18;5.43;;;15.00;99.90;;;;;;5016054;28;20223;-89
2021/08/01 02:55:27;;;;;;;9.40;5.60;;;15.00;99.90;;;;;;5017488;28;20203;-90
2021/08/01 02:57:54;;;;;;;7.22;5.22;;;15.00;99.90;;;;;;5021609;28;20231;-90
2021/08/01 03:00:25;;;;;;;7.20;5.43;;;15.00;99.90;;;;;;5017685;28;20742;-89
2021/08/01 03:02:53;;;;;;;8.68;5.32;;;14.90;99.90;;;;;;5022376;28;20227;-90
2021/08/01 03:05:21;;;;;;;11.23;5.30;;;14.90;99.90;;;;;;5015962;28;20219;-90
2021/08/01 03:07:50;;;;;;;8.80;6.03;;;14.90;99.90;;;;;;5000934;28;20232;-89
2021/08/01 03:10:17;;;;;;;6.55;5.65;;;15.00;99.90;;;;;;5016429;28;20199;-89
2021/08/01 03:12:45;;;;;;;6.38;5.30;;;15.00;99.90;;;;;;5019643;28;20241;-90
2021/08/01 03:15:12;;;;;;;8.07;5.90;;;15.00;99.90;;;;;;5023659;28;20293;-90
2021/08/01 03:17:41;;;;;;;8.55;6.10;;;15.00;99.90;;;;;;5026981;28;20246;-89
2021/08/01 03:20:09;;;;;;;9.43;5.40;;;15.10;99.90;;;;;;5048070;28;20209;-90
2021/08/01 03:22:36;;;;;;;8.82;5.35;;;15.00;99.90;;;;;;5047166;28;20226;-89
2021/08/01 03:25:04;;;;;;;8.32;5.40;;;15.00;99.90;;;;;;5050003;28;20712;-89
2021/08/01 03:27:31;;;;;;;8.52;5.50;;;15.00;99.90;;;;;;5054047;28;20230;-90
2021/08/01 03:29:58;;;;;;;8.63;6.13;;;15.00;99.90;;;;;;5054505;28;20194;-89
2021/08/01 03:32:25;;;;;;;6.25;5.53;;;15.00;99.90;;;;;;5059597;28;20222;-89
2021/08/01 03:34:53;;;;;;;8.02;5.90;;;15.00;99.90;;;;;;5054869;28;20198;-89
2021/08/01 03:37:20;;;;;;;8.20;5.53;;;15.00;99.90;;;;;;5040768;28;20643;-89
2021/08/01 03:39:47;;;;;;;8.10;4.00;;;15.00;99.90;;;;;;5056584;28;20200;-88
2021/08/01 03:42:14;;;;;;;5.70;3.75;;;14.90;99.90;;;;;;5057469;28;20249;-88
2021/08/01 03:44:42;;;;;;;6.88;3.83;;;14.70;99.90;;;;;;5057622;28;20280;-88
2021/08/01 03:47:08;;;;;;;5.95;3.30;;;14.70;99.90;;;;;;5047990;28;20294;-89
2021/08/01 03:49:36;;;;;;;3.60;2.28;;;14.60;99.90;;;;;;5051048;28;20221;-90
2021/08/01 03:52:05;;;;;;;3.45;2.25;;;14.70;99.90;;;;;;5057222;28;20218;-89
2021/08/01 03:54:32;;;;;;;2.90;2.25;;;14.60;99.90;;;;;;5057843;28;20753;-88
2021/08/01 03:56:58;;;;;;;2.55;2.00;;;14.70;99.90;;;;;;5057119;28;20241;-90
2021/08/01 03:59:25;;;;;;;2.65;2.22;;;14.80;99.90;;;;;;5047854;28;20213;-91
2021/08/01 04:01:52;;;;;;;3.25;2.70;;;14.80;99.90;;;;;;5035093;28;20236;-89
2021/08/01 04:04:19;;;;;;;3.45;2.80;;;14.80;99.90;;;;;;5057171;28;20201;-89
2021/08/01 04:06:46;;;;;;;3.15;2.45;;;14.90;99.90;;;;;;5055185;28;20641;-91
2021/08/01 04:09:14;;;;;;;2.65;2.38;;;14.90;99.90;;;;;;5057020;28;20198;-89
2021/08/01 04:11:44;;;;;;;2.13;1.92;;;14.90;99.90;;;;;;5057289;28;20202;-89
2021/08/01 04:14:10;;;;;;;2.35;1.60;;;14.80;99.90;;;;;;5057820;28;20198;-91
2021/08/01 04:16:38;;;;;;;2.05;1.95;;;14.70;99.90;;;;;;5057569;28;20685;-88
2021/08/01 04:19:08;;;;;;;2.20;1.58;;;14.70;99.90;;;;;;5058497;28;20201;-88
2021/08/01 04:21:35;;;;;;;1.92;1.70;;;14.70;99.90;;;;;;5049400;28;20205;-89
2021/08/01 04:24:02;;;;;;;2.83;1.60;;;14.70;99.90;;;;;;5051607;28;20194;-90
2021/08/01 04:26:30;;;;;;;1.83;1.73;;;14.80;99.90;;;;;;5044150;28;20224;-89
2021/08/01 04:28:58;;;;;;;2.60;1.70;;;14.90;99.90;;;;;;5054518;28;20194;-89
2021/08/01 04:31:25;;;;;;;2.17;1.85;;;14.80;99.90;;;;;;5039152;28;20206;-89
2021/08/01 04:33:52;;;;;;;2.33;2.15;;;14.70;99.90;;;;;;5045864;28;20560;-89
2021/08/01 04:36:19;;;;;;;2.55;2.05;;;14.60;99.90;;;;;;5053903;28;20202;-89
2021/08/01 04:38:46;;;;;;;2.38;2.00;;;14.70;99.90;;;;;;5055282;28;20229;-90
2021/08/01 04:41:13;;;;;;;2.75;2.00;;;14.70;99.90;;;;;;5042244;28;20206;-90
2021/08/01 04:43:41;;;;;;;2.13;1.75;;;14.70;99.90;;;;;;5057601;28;20228;-89
2021/08/01 04:46:09;;;;;;;2.20;1.85;;;14.70;99.90;;;;;;5056691;28;20312;-91
2021/08/01 04:48:36;;;;;;;2.20;2.00;;;14.70;99.90;;;;;;5046905;28;20682;-90
2021/08/01 04:51:31;;;;;;;2.30;2.10;;;14.70;99.90;;;;;;5054058;28;20212;-90
2021/08/01 04:53:58;;;;;;;2.50;2.30;;;14.60;99.90;;;;;;5042826;28;20214;-91
2021/08/01 04:56:25;;;;;;;2.20;2.00;;;14.70;99.90;;;;;;5057581;28;20557;-90
2021/08/01 04:59:19;;;;;;;2.25;2.05;;;14.60;99.90;;;;;;5052604;28;20522;-89
2021/08/01 05:01:47;;;;;;;2.75;2.55;;;14.60;99.90;;;;;;5038416;28;20656;-91
2021/08/01 05:04:14;;;;;;;3.08;2.05;;;14.60;99.90;;;;;;5055915;28;20607;-89
2021/08/01 05:06:41;;;;;;;2.50;2.30;;;14.60;99.90;;;;;;5059561;28;20214;-88
2021/08/01 05:16:27;;;;;;;3.45;1.90;;;14.50;99.90;;;;;;5042236;28;20708;-88
2021/08/01 05:22:19;;;;;;;2.00;1.80;;;14.70;99.90;;;;;;5039275;28;20607;-88
2021/08/01 05:28:08;;;;;;;2.17;1.98;;;14.70;99.90;;;;;;5036632;28;20291;-89
2021/08/01 05:33:50;;;;;;;1.80;1.70;;;14.70;99.90;;;;;;5038432;28;20202;-88
2021/08/01 05:36:17;;;;;;;3.90;1.83;;;14.70;99.90;;;;;;5036956;28;20190;-88
2021/08/01 05:38:44;;;;;;;2.10;1.75;;;14.60;99.90;;;;;;5036766;28;20230;-88
2021/08/01 05:41:15;;;;;;;1.92;1.83;;;14.60;99.90;;;;;;5036751;28;20195;-89
2021/08/01 05:43:42;;;;;;;2.20;1.83;;;14.70;99.90;;;;;;5040454;28;20203;-89
2021/08/01 05:46:11;;;;;;;2.80;1.77;;;14.70;99.90;;;;;;5036313;28;20266;-89
